createdAt,value
2023-05-03T00:00:06.144Z,1.50
2023-05-03T00:00:17.797Z,1.50
2023-05-03T00:00:28.535Z,1.49
2023-05-03T00:00:40.199Z,1.47
2023-05-03T00:00:50.915Z,1.49
2023-05-03T00:01:01.681Z,1.49
2023-05-03T00:01:12.443Z,1.49
2023-05-03T00:01:23.222Z,1.49
2023-05-03T00:01:34.042Z,1.47
2023-05-03T00:01:44.823Z,1.49
2023-05-03T00:01:57.287Z,1.49
2023-05-03T00:02:08.042Z,1.49
2023-05-03T00:02:20.317Z,1.49
2023-05-03T00:02:31.194Z,1.47
2023-05-03T00:02:43.989Z,1.49
2023-05-03T00:02:54.819Z,1.49
2023-05-03T00:03:05.566Z,1.50
2023-05-03T00:03:17.788Z,1.52
2023-05-03T00:03:30.978Z,1.52
2023-05-03T00:03:41.714Z,1.52
2023-05-03T00:03:52.503Z,1.50
2023-05-03T00:04:03.239Z,1.52
2023-05-03T00:04:13.955Z,1.52
2023-05-03T00:04:27.636Z,1.52
2023-05-03T00:04:38.326Z,1.52
2023-05-03T00:04:49.128Z,1.52
2023-05-03T00:05:01.559Z,1.52
2023-05-03T00:05:14.039Z,1.52
2023-05-03T00:05:24.852Z,1.52
2023-05-03T00:05:35.697Z,1.50
2023-05-03T00:05:46.420Z,1.50
2023-05-03T00:05:58.144Z,1.52
2023-05-03T00:06:09.933Z,1.50
2023-05-03T00:06:22.714Z,1.50
2023-05-03T00:06:35.231Z,1.50
2023-05-03T00:06:47.725Z,1.49
2023-05-03T00:07:00.770Z,1.49
2023-05-03T00:07:12.484Z,1.49
2023-05-03T00:07:24.680Z,1.50
2023-05-03T00:07:35.461Z,1.49
2023-05-03T00:07:47.893Z,1.47
2023-05-03T00:07:59.594Z,1.49
2023-05-03T00:08:11.281Z,1.49
2023-05-03T00:08:22.990Z,1.49
2023-05-03T00:08:33.746Z,1.47
2023-05-03T00:08:46.927Z,1.49
2023-05-03T00:08:58.635Z,1.47
2023-05-03T00:09:10.357Z,1.49
2023-05-03T00:09:21.101Z,1.47
2023-05-03T00:09:31.874Z,1.47
2023-05-03T00:09:42.581Z,1.47
2023-05-03T00:09:53.279Z,1.49
2023-05-03T00:10:06.142Z,1.47
2023-05-03T00:10:16.920Z,1.44
2023-05-03T00:10:27.668Z,1.46
2023-05-03T00:10:38.423Z,1.46
2023-05-03T00:10:49.100Z,1.44
2023-05-03T00:11:01.300Z,1.44
2023-05-03T00:11:12.067Z,1.44
2023-05-03T00:11:23.787Z,1.43
2023-05-03T00:11:36.013Z,1.43
2023-05-03T00:11:47.695Z,1.43
2023-05-03T00:11:58.447Z,1.42
2023-05-03T00:12:09.140Z,1.43
2023-05-03T00:12:21.559Z,1.43
2023-05-03T00:12:32.316Z,1.42
2023-05-03T00:12:43.047Z,1.42
2023-05-03T00:12:53.753Z,1.42
2023-05-03T00:13:06.174Z,1.39
2023-05-03T00:13:16.946Z,1.39
2023-05-03T00:13:28.685Z,1.38
2023-05-03T00:13:40.363Z,1.38
2023-05-03T00:13:51.068Z,1.38
2023-05-03T00:14:01.809Z,1.38
2023-05-03T00:14:12.485Z,1.35
2023-05-03T00:14:23.278Z,1.35
2023-05-03T00:14:33.948Z,1.36
2023-05-03T00:14:44.678Z,1.34
2023-05-03T00:14:55.385Z,1.32
2023-05-03T00:15:06.110Z,1.34
2023-05-03T00:15:16.814Z,1.32
2023-05-03T00:15:30.015Z,1.32
2023-05-03T00:15:40.765Z,1.31
2023-05-03T00:15:51.456Z,1.31
2023-05-03T00:16:03.124Z,1.29
2023-05-03T00:16:15.579Z,1.31
2023-05-03T00:16:27.950Z,1.29
2023-05-03T00:16:38.636Z,1.29
2023-05-03T00:16:51.326Z,1.28
2023-05-03T00:17:03.101Z,1.28
2023-05-03T00:17:13.920Z,1.26
2023-05-03T00:17:24.622Z,1.26
2023-05-03T00:17:35.418Z,1.26
2023-05-03T00:17:46.151Z,1.28
2023-05-03T00:17:56.921Z,1.26
2023-05-03T00:18:07.664Z,1.26
2023-05-03T00:18:18.324Z,1.25
2023-05-03T00:18:29.018Z,1.25
2023-05-03T00:18:41.428Z,1.25
2023-05-03T00:18:52.188Z,1.25
2023-05-03T00:19:02.900Z,1.24
2023-05-03T00:19:24.307Z,1.24
2023-05-03T00:19:31.965Z,1.24
2023-05-03T00:19:42.746Z,1.24
2023-05-03T00:19:53.457Z,1.21
2023-05-03T00:20:06.051Z,1.21
2023-05-03T00:20:16.895Z,1.20
2023-05-03T00:20:27.639Z,1.20
2023-05-03T00:20:40.024Z,1.20
2023-05-03T00:20:50.724Z,1.20
2023-05-03T00:21:01.544Z,1.20
2023-05-03T00:21:12.255Z,1.20
2023-05-03T00:21:22.984Z,1.18
2023-05-03T00:21:35.160Z,1.18
2023-05-03T00:21:45.899Z,1.17
2023-05-03T00:21:56.605Z,1.17
2023-05-03T00:22:08.947Z,1.17
2023-05-03T00:22:19.685Z,1.18
2023-05-03T00:22:30.444Z,1.17
2023-05-03T00:22:42.110Z,1.18
2023-05-03T00:22:52.793Z,1.17
2023-05-03T00:23:03.614Z,1.18
2023-05-03T00:23:14.379Z,1.17
2023-05-03T00:23:27.807Z,1.18
2023-05-03T00:23:40.214Z,1.17
2023-05-03T00:23:52.413Z,1.16
2023-05-03T00:24:04.610Z,1.16
2023-05-03T00:24:16.787Z,1.17
2023-05-03T00:24:27.526Z,1.16
2023-05-03T00:24:38.258Z,1.17
2023-05-03T00:24:51.006Z,1.17
2023-05-03T00:25:01.736Z,1.17
2023-05-03T00:25:12.449Z,1.17
2023-05-03T00:25:23.228Z,1.17
2023-05-03T00:25:33.986Z,1.16
2023-05-03T00:25:44.763Z,1.18
2023-05-03T00:25:55.521Z,1.16
2023-05-03T00:26:06.221Z,1.16
2023-05-03T00:26:19.422Z,1.16
2023-05-03T00:26:31.145Z,1.16
2023-05-03T00:26:41.847Z,1.16
2023-05-03T00:26:54.257Z,1.16
2023-05-03T00:27:04.964Z,1.16
2023-05-03T00:27:15.762Z,1.16
2023-05-03T00:27:28.696Z,1.16
2023-05-03T00:27:40.409Z,1.16
2023-05-03T00:27:51.145Z,1.16
2023-05-03T00:28:01.901Z,1.16
2023-05-03T00:28:14.331Z,1.14
2023-05-03T00:28:26.779Z,1.16
2023-05-03T00:28:39.198Z,1.17
2023-05-03T00:28:50.914Z,1.17
2023-05-03T00:29:04.051Z,1.17
2023-05-03T00:29:16.471Z,1.16
2023-05-03T00:29:28.904Z,1.14
2023-05-03T00:29:39.688Z,1.17
2023-05-03T00:29:52.081Z,1.16
2023-05-03T00:30:04.737Z,1.17
2023-05-03T00:30:15.627Z,1.17
2023-05-03T00:30:26.391Z,1.16
2023-05-03T00:30:38.779Z,1.17
2023-05-03T00:30:50.512Z,1.18
2023-05-03T00:31:01.341Z,1.20
2023-05-03T00:31:13.555Z,1.20
2023-05-03T00:31:26.069Z,1.20
2023-05-03T00:31:38.649Z,1.20
2023-05-03T00:31:49.497Z,1.20
2023-05-03T00:32:01.881Z,1.20
2023-05-03T00:32:13.553Z,1.20
2023-05-03T00:32:26.069Z,1.20
2023-05-03T00:32:36.817Z,1.20
2023-05-03T00:32:49.263Z,1.21
2023-05-03T00:33:00.125Z,1.20
2023-05-03T00:33:12.121Z,1.20
2023-05-03T00:33:24.807Z,1.21
2023-05-03T00:33:35.509Z,1.20
2023-05-03T00:33:47.231Z,1.20
2023-05-03T00:33:59.950Z,1.20
2023-05-03T00:34:10.639Z,1.20
2023-05-03T00:34:23.570Z,1.18
2023-05-03T00:34:34.323Z,1.18
2023-05-03T00:34:45.104Z,1.18
2023-05-03T00:34:55.850Z,1.18
2023-05-03T00:35:06.528Z,1.18
2023-05-03T00:35:17.251Z,1.18
2023-05-03T00:35:28.948Z,1.18
2023-05-03T00:35:39.708Z,1.18
2023-05-03T00:35:51.367Z,1.17
2023-05-03T00:36:03.799Z,1.17
2023-05-03T00:36:15.523Z,1.17
2023-05-03T00:36:27.216Z,1.16
2023-05-03T00:36:39.005Z,1.17
2023-05-03T00:36:49.756Z,1.16
2023-05-03T00:37:00.476Z,1.16
2023-05-03T00:37:12.180Z,1.14
2023-05-03T00:37:22.895Z,1.13
2023-05-03T00:37:34.586Z,1.13
2023-05-03T00:37:45.290Z,1.11
2023-05-03T00:37:56.951Z,1.13
2023-05-03T00:38:09.458Z,1.11
2023-05-03T00:38:21.847Z,1.11
2023-05-03T00:38:32.575Z,1.10
2023-05-03T00:38:43.295Z,1.10
2023-05-03T00:38:53.971Z,1.08
2023-05-03T00:39:04.703Z,1.10
2023-05-03T00:39:15.497Z,1.10
2023-05-03T00:39:27.126Z,1.07
2023-05-03T00:39:37.842Z,1.07
2023-05-03T00:39:50.037Z,1.07
2023-05-03T00:40:01.954Z,1.07
2023-05-03T00:40:12.817Z,1.06
2023-05-03T00:40:25.271Z,1.06
2023-05-03T00:40:35.956Z,1.04
2023-05-03T00:40:46.648Z,1.04
2023-05-03T00:40:57.501Z,1.04
2023-05-03T00:41:08.173Z,1.04
2023-05-03T00:41:18.912Z,1.02
2023-05-03T00:41:29.689Z,1.02
2023-05-03T00:41:41.366Z,1.00
2023-05-03T00:41:52.111Z,1.00
2023-05-03T00:42:02.814Z,1.00
2023-05-03T00:42:13.520Z,1.00
2023-05-03T00:42:25.912Z,1.00
2023-05-03T00:42:38.081Z,0.98
2023-05-03T00:42:48.824Z,0.98
2023-05-03T00:43:00.992Z,0.96
2023-05-03T00:43:12.665Z,0.95
2023-05-03T00:43:24.491Z,0.98
2023-05-03T00:43:36.932Z,0.95
2023-05-03T00:43:49.847Z,0.95
2023-05-03T00:44:03.049Z,0.95
2023-05-03T00:44:13.758Z,0.95
2023-05-03T00:44:27.441Z,0.95
2023-05-03T00:44:38.165Z,0.95
2023-05-03T00:44:52.289Z,0.93
2023-05-03T00:45:04.063Z,0.93
2023-05-03T00:45:16.233Z,0.92
2023-05-03T00:45:28.470Z,0.93
2023-05-03T00:45:39.222Z,0.93
2023-05-03T00:45:51.146Z,0.93
2023-05-03T00:46:15.349Z,0.93
2023-05-03T00:46:19.716Z,0.92
2023-05-03T00:46:31.402Z,0.92
2023-05-03T00:46:44.108Z,0.92
2023-05-03T00:46:54.892Z,0.92
2023-05-03T00:47:05.671Z,0.92
2023-05-03T00:47:19.493Z,0.92
2023-05-03T00:47:31.297Z,0.93
2023-05-03T00:47:42.044Z,0.92
2023-05-03T00:47:52.753Z,0.92
2023-05-03T00:48:05.254Z,0.92
2023-05-03T00:48:16.918Z,0.92
2023-05-03T00:48:29.085Z,0.90
2023-05-03T00:48:39.825Z,0.92
2023-05-03T00:48:50.558Z,0.92
2023-05-03T00:49:03.258Z,0.92
2023-05-03T00:49:13.967Z,0.90
2023-05-03T00:49:24.721Z,0.92
2023-05-03T00:49:35.423Z,0.90
2023-05-03T00:49:46.122Z,0.92
2023-05-03T00:49:56.884Z,0.90
2023-05-03T00:50:07.644Z,0.90
2023-05-03T00:50:20.812Z,0.90
2023-05-03T00:50:33.032Z,0.88
2023-05-03T00:50:45.444Z,0.88
2023-05-03T00:50:57.131Z,0.88
2023-05-03T00:51:07.884Z,0.88
2023-05-03T00:51:20.346Z,0.88
2023-05-03T00:51:31.109Z,0.86
2023-05-03T00:51:41.847Z,0.86
2023-05-03T00:51:52.626Z,0.88
2023-05-03T00:52:03.333Z,0.84
2023-05-03T00:52:14.053Z,0.86
2023-05-03T00:52:24.777Z,0.86
2023-05-03T00:52:37.343Z,0.86
2023-05-03T00:52:49.020Z,0.84
2023-05-03T00:52:59.750Z,0.86
2023-05-03T00:53:11.441Z,0.86
2023-05-03T00:53:23.110Z,0.84
2023-05-03T00:53:33.824Z,0.84
2023-05-03T00:53:45.529Z,0.84
2023-05-03T00:53:58.481Z,0.84
2023-05-03T00:54:10.900Z,0.84
2023-05-03T00:54:22.569Z,0.84
2023-05-03T00:54:35.036Z,0.82
2023-05-03T00:54:48.263Z,0.82
2023-05-03T00:55:00.681Z,0.84
2023-05-03T00:55:12.352Z,0.82
2023-05-03T00:55:23.052Z,0.82
2023-05-03T00:55:33.797Z,0.82
2023-05-03T00:55:44.516Z,0.81
2023-05-03T00:55:55.217Z,0.81
2023-05-03T00:56:05.952Z,0.81
2023-05-03T00:56:16.671Z,0.82
2023-05-03T00:56:32.970Z,0.81
2023-05-03T00:56:51.661Z,0.81
2023-05-03T00:57:02.077Z,0.81
2023-05-03T00:57:13.835Z,0.81
2023-05-03T00:57:24.574Z,0.80
2023-05-03T00:58:15.412Z,0.00
2023-05-03T00:58:27.832Z,0.78
2023-05-03T00:58:38.615Z,0.78
2023-05-03T00:58:49.299Z,0.77
2023-05-03T00:59:00.961Z,0.75
2023-05-03T00:59:11.669Z,0.75
2023-05-03T00:59:22.387Z,0.75
2023-05-03T00:59:33.158Z,0.75
2023-05-03T00:59:45.526Z,0.74
2023-05-03T00:59:56.238Z,0.74
2023-05-03T01:00:06.938Z,0.74
2023-05-03T01:00:19.360Z,0.72
2023-05-03T01:00:30.083Z,0.72
2023-05-03T01:00:40.790Z,0.72
2023-05-03T01:00:51.550Z,0.71
2023-05-03T01:01:02.232Z,0.70
2023-05-03T01:01:12.994Z,0.70
2023-05-03T01:01:23.830Z,0.70
2023-05-03T01:01:34.550Z,0.68
2023-05-03T01:01:45.402Z,0.68
2023-05-03T01:01:58.104Z,0.67
2023-05-03T01:02:08.919Z,0.64
2023-05-03T01:02:20.709Z,0.67
2023-05-03T01:02:31.517Z,0.63
2023-05-03T01:02:43.358Z,0.64
2023-05-03T01:02:56.614Z,0.63
2023-05-03T01:03:07.522Z,0.64
2023-05-03T01:03:18.407Z,0.63
2023-05-03T01:03:30.924Z,0.63
2023-05-03T01:03:41.933Z,0.63
2023-05-03T01:03:52.807Z,0.63
2023-05-03T01:04:03.588Z,0.63
2023-05-03T01:04:14.302Z,0.63
2023-05-03T01:04:26.999Z,0.62
2023-05-03T01:04:39.705Z,0.63
2023-05-03T01:04:54.130Z,0.62
2023-05-03T01:05:06.586Z,0.62
2023-05-03T01:05:19.481Z,0.63
2023-05-03T01:05:31.159Z,0.62
2023-05-03T01:05:43.556Z,0.62
2023-05-03T01:05:54.259Z,0.62
2023-05-03T01:06:06.729Z,0.60
2023-05-03T01:06:19.136Z,0.60
2023-05-03T01:06:30.927Z,0.60
2023-05-03T01:06:44.179Z,0.60
2023-05-03T01:06:56.825Z,0.60
2023-05-03T01:07:08.505Z,0.60
2023-05-03T01:07:20.247Z,0.60
2023-05-03T01:07:30.985Z,0.60
2023-05-03T01:07:41.664Z,0.60
2023-05-03T01:07:52.388Z,0.60
2023-05-03T01:08:03.111Z,0.60
2023-05-03T01:08:14.822Z,0.60
2023-05-03T01:08:26.519Z,0.60
2023-05-03T01:08:37.257Z,0.57
2023-05-03T01:08:47.961Z,0.60
2023-05-03T01:08:59.645Z,0.59
2023-05-03T01:09:12.834Z,0.57
2023-05-03T01:09:23.555Z,0.57
2023-05-03T01:09:35.927Z,0.57
2023-05-03T01:09:49.595Z,0.57
2023-05-03T01:10:01.471Z,0.57
2023-05-03T01:10:12.284Z,0.57
2023-05-03T01:10:23.068Z,0.56
2023-05-03T01:10:35.251Z,0.57
2023-05-03T01:10:45.947Z,0.57
2023-05-03T01:10:58.910Z,0.56
2023-05-03T01:11:09.628Z,0.56
2023-05-03T01:11:20.327Z,0.56
2023-05-03T01:11:31.038Z,0.56
2023-05-03T01:11:41.804Z,0.56
2023-05-03T01:11:52.524Z,0.57
2023-05-03T01:12:04.932Z,0.57
2023-05-03T01:12:17.331Z,0.59
2023-05-03T01:12:28.085Z,0.59
2023-05-03T01:12:38.775Z,0.59
2023-05-03T01:12:49.469Z,0.59
2023-05-03T01:13:00.179Z,0.57
2023-05-03T01:13:14.383Z,0.59
2023-05-03T01:13:26.108Z,0.59
2023-05-03T01:13:38.309Z,0.57
2023-05-03T01:13:49.088Z,0.59
2023-05-03T01:13:59.777Z,0.59
2023-05-03T01:14:10.522Z,0.59
2023-05-03T01:14:21.206Z,0.59
2023-05-03T01:14:32.886Z,0.59
2023-05-03T01:14:44.553Z,0.59
2023-05-03T01:14:57.975Z,0.59
2023-05-03T01:15:11.170Z,0.57
2023-05-03T01:15:23.100Z,0.56
2023-05-03T01:15:36.279Z,0.56
2023-05-03T01:15:47.041Z,0.57
2023-05-03T01:15:58.790Z,0.56
2023-05-03T01:16:09.510Z,0.53
2023-05-03T01:16:21.697Z,0.53
2023-05-03T01:16:32.427Z,0.53
2023-05-03T01:16:44.264Z,0.52
2023-05-03T01:16:57.216Z,0.53
2023-05-03T01:17:07.918Z,0.51
2023-05-03T01:17:19.845Z,0.51
2023-05-03T01:17:32.793Z,0.52
2023-05-03T01:17:43.552Z,0.49
2023-05-03T01:17:54.330Z,0.51
2023-05-03T01:18:06.075Z,0.51
2023-05-03T01:18:18.746Z,0.51
2023-05-03T01:18:31.157Z,0.49
2023-05-03T01:18:43.581Z,0.49
2023-05-03T01:18:54.328Z,0.49
2023-05-03T01:19:05.076Z,0.48
2023-05-03T01:19:17.721Z,0.49
2023-05-03T01:19:30.133Z,0.49
2023-05-03T01:19:40.868Z,0.48
2023-05-03T01:19:53.268Z,0.48
2023-05-03T01:20:05.447Z,0.48
2023-05-03T01:20:16.376Z,0.49
2023-05-03T01:20:27.073Z,0.48
2023-05-03T01:20:37.783Z,0.48
2023-05-03T01:20:48.496Z,0.45
2023-05-03T01:21:00.213Z,0.48
2023-05-03T01:21:10.893Z,0.45
2023-05-03T01:21:21.602Z,0.45
2023-05-03T01:21:34.078Z,0.45
2023-05-03T01:21:44.745Z,0.45
2023-05-03T01:21:55.486Z,0.45
2023-05-03T01:22:06.246Z,0.45
2023-05-03T01:22:16.947Z,0.45
2023-05-03T01:22:30.623Z,0.44
2023-05-03T01:22:42.373Z,0.43
2023-05-03T01:22:54.775Z,0.43
2023-05-03T01:23:05.492Z,0.43
2023-05-03T01:23:16.186Z,0.43
2023-05-03T01:23:27.939Z,0.43
2023-05-03T01:23:40.357Z,0.41
2023-05-03T01:23:51.108Z,0.41
2023-05-03T01:24:03.525Z,0.40
2023-05-03T01:24:14.275Z,0.38
2023-05-03T01:24:25.989Z,0.38
2023-05-03T01:24:38.359Z,0.38
2023-05-03T01:24:50.083Z,0.40
2023-05-03T01:25:02.972Z,0.38
2023-05-03T01:25:13.698Z,0.38
2023-05-03T01:25:27.347Z,0.37
2023-05-03T01:25:39.797Z,0.35
2023-05-03T01:25:51.497Z,0.35
2023-05-03T01:26:03.389Z,0.35
2023-05-03T01:26:15.805Z,0.34
2023-05-03T01:26:28.216Z,0.34
2023-05-03T01:26:39.954Z,0.35
2023-05-03T01:26:52.345Z,0.34
2023-05-03T01:27:03.100Z,0.33
2023-05-03T01:27:13.789Z,0.34
2023-05-03T01:27:49.417Z,0.00
2023-05-03T01:28:01.126Z,0.31
2023-05-03T01:28:11.843Z,0.31
2023-05-03T01:28:22.533Z,0.31
2023-05-03T01:28:33.292Z,0.31
2023-05-03T01:28:45.543Z,0.30
2023-05-03T01:28:56.249Z,0.30
2023-05-03T01:29:06.922Z,0.28
2023-05-03T01:29:18.676Z,0.28
2023-05-03T01:29:31.055Z,0.26
2023-05-03T01:29:42.963Z,0.25
2023-05-03T01:29:53.700Z,0.26
2023-05-03T01:30:04.782Z,0.26
2023-05-03T01:30:17.352Z,0.25
2023-05-03T01:30:29.763Z,0.25
2023-05-03T01:30:40.512Z,0.23
2023-05-03T01:30:52.883Z,0.25
2023-05-03T01:31:03.646Z,0.25
2023-05-03T01:31:16.047Z,0.23
2023-05-03T01:31:29.033Z,0.25
2023-05-03T01:31:39.782Z,0.23
2023-05-03T01:31:52.246Z,0.23
2023-05-03T01:32:03.034Z,0.23
2023-05-03T01:32:13.765Z,0.22
2023-05-03T01:32:24.518Z,0.22
2023-05-03T01:32:36.980Z,0.22
2023-05-03T01:32:48.752Z,0.22
2023-05-03T01:33:00.539Z,0.22
2023-05-03T01:33:12.534Z,0.22
2023-05-03T01:33:24.934Z,0.22
2023-05-03T01:33:35.698Z,0.20
2023-05-03T01:33:46.445Z,0.20
2023-05-03T01:33:57.179Z,0.22
2023-05-03T01:34:07.904Z,0.20
2023-05-03T01:34:20.091Z,0.22
2023-05-03T01:34:31.805Z,0.20
2023-05-03T01:34:43.528Z,0.19
2023-05-03T01:34:54.268Z,0.19
2023-05-03T01:35:07.465Z,0.19
2023-05-03T01:35:19.123Z,0.19
2023-05-03T01:35:30.808Z,0.19
2023-05-03T01:35:41.549Z,0.19
2023-05-03T01:35:53.192Z,0.17
2023-05-03T01:36:06.108Z,0.17
2023-05-03T01:36:18.085Z,0.17
2023-05-03T01:36:30.249Z,0.16
2023-05-03T01:36:42.677Z,0.17
2023-05-03T01:36:54.403Z,0.16
2023-05-03T01:37:07.630Z,0.16
2023-05-03T01:37:19.288Z,0.16
2023-05-03T01:37:31.212Z,0.15
2023-05-03T01:37:41.970Z,0.15
2023-05-03T01:37:52.669Z,0.15
2023-05-03T01:38:05.085Z,0.13
2023-05-03T01:38:16.754Z,0.16
2023-05-03T01:38:29.209Z,0.15
2023-05-03T01:38:41.387Z,0.16
2023-05-03T01:38:53.118Z,0.15
2023-05-03T01:39:03.803Z,0.15
2023-05-03T01:39:16.224Z,0.15
2023-05-03T01:39:26.936Z,0.13
2023-05-03T01:39:39.329Z,0.13
2023-05-03T01:39:52.994Z,0.13
2023-05-03T01:40:06.202Z,0.13
2023-05-03T01:40:17.085Z,0.12
2023-05-03T01:40:27.798Z,0.12
2023-05-03T01:40:40.200Z,0.12
2023-05-03T01:40:52.567Z,0.12
2023-05-03T01:41:04.552Z,0.12
2023-05-03T01:41:16.728Z,0.12
2023-05-03T01:41:28.985Z,0.12
2023-05-03T01:41:39.690Z,0.10
2023-05-03T01:41:50.413Z,0.08
2023-05-03T01:42:01.171Z,0.10
2023-05-03T01:42:11.898Z,0.12
2023-05-03T01:42:24.152Z,0.10
2023-05-03T01:42:34.848Z,0.10
2023-05-03T01:42:45.547Z,0.10
2023-05-03T01:42:56.265Z,0.12
2023-05-03T01:43:08.658Z,0.10
2023-05-03T01:43:19.403Z,0.12
2023-05-03T01:43:30.241Z,0.12
2023-05-03T01:43:43.409Z,0.10
2023-05-03T01:43:54.118Z,0.10
2023-05-03T01:44:05.844Z,0.10
2023-05-03T01:44:17.998Z,0.10
2023-05-03T01:44:28.702Z,0.08
2023-05-03T01:44:41.395Z,0.08
2023-05-03T01:44:52.113Z,0.07
2023-05-03T01:45:03.828Z,0.07
2023-05-03T01:45:16.055Z,0.08
2023-05-03T01:45:27.870Z,0.08
2023-05-03T01:45:38.653Z,0.07
2023-05-03T01:45:49.362Z,0.08
2023-05-03T01:46:01.833Z,0.08
2023-05-03T01:46:14.121Z,0.08
2023-05-03T01:46:26.074Z,0.07
2023-05-03T01:46:39.297Z,0.08
2023-05-03T01:46:50.013Z,0.07
2023-05-03T01:47:00.795Z,0.07
2023-05-03T01:47:13.480Z,0.07
2023-05-03T01:47:26.677Z,0.07
2023-05-03T01:47:37.404Z,0.07
2023-05-03T01:47:49.832Z,0.05
2023-05-03T01:48:00.638Z,0.05
2023-05-03T01:48:11.408Z,0.05
2023-05-03T01:48:23.833Z,0.05
2023-05-03T01:48:35.578Z,0.05
2023-05-03T01:48:48.214Z,0.07
2023-05-03T01:48:59.900Z,0.05
2023-05-03T01:49:11.635Z,0.05
2023-05-03T01:49:23.305Z,0.04
2023-05-03T01:49:34.006Z,0.05
2023-05-03T01:49:46.940Z,0.05
2023-05-03T01:49:59.107Z,0.05
2023-05-03T01:50:09.815Z,0.07
2023-05-03T01:50:20.591Z,0.07
2023-05-03T01:50:32.266Z,0.05
2023-05-03T01:50:42.984Z,0.05
2023-05-03T01:50:54.660Z,0.07
2023-05-03T01:51:05.382Z,0.07
2023-05-03T01:51:17.120Z,0.07
2023-05-03T01:51:29.816Z,0.07
2023-05-03T01:51:41.931Z,0.07
2023-05-03T01:51:52.690Z,0.07
2023-05-03T01:52:04.341Z,0.07
2023-05-03T01:52:16.994Z,0.08
2023-05-03T01:52:29.488Z,0.08
2023-05-03T01:52:40.196Z,0.08
2023-05-03T01:52:52.861Z,0.08
2023-05-03T01:53:05.550Z,0.08
2023-05-03T01:53:17.286Z,0.10
2023-05-03T01:53:29.716Z,0.10
2023-05-03T01:53:41.392Z,0.12
2023-05-03T01:53:53.858Z,0.12
2023-05-03T01:54:04.542Z,0.12
2023-05-03T01:54:15.249Z,0.12
2023-05-03T01:54:28.439Z,0.12
2023-05-03T01:54:39.157Z,0.13
2023-05-03T01:54:52.121Z,0.10
2023-05-03T01:55:03.808Z,0.12
2023-05-03T01:55:14.550Z,0.10
2023-05-03T01:55:27.060Z,0.12
2023-05-03T01:55:38.743Z,0.12
2023-05-03T01:55:52.416Z,0.10
2023-05-03T01:56:03.234Z,0.08
2023-05-03T01:56:14.917Z,0.10
2023-05-03T01:56:25.681Z,0.07
2023-05-03T01:56:38.908Z,0.08
2023-05-03T01:56:51.286Z,0.08
2023-05-03T01:57:02.069Z,0.07
2023-05-03T01:57:12.873Z,0.05
2023-05-03T01:57:25.540Z,0.05
2023-05-03T01:57:38.014Z,0.04
2023-05-03T01:57:49.992Z,0.04
2023-05-03T01:58:01.641Z,0.04
2023-05-03T01:58:12.445Z,0.02
2023-05-03T01:58:23.143Z,0.01
2023-05-03T01:58:34.852Z,0.01
2023-05-03T01:58:45.659Z,-0.01
2023-05-03T01:58:58.094Z,-0.02
2023-05-03T01:59:12.250Z,-0.02
2023-05-03T01:59:24.744Z,-0.02
2023-05-03T01:59:36.389Z,-0.03
2023-05-03T01:59:47.109Z,-0.03
2023-05-03T02:00:00.456Z,-0.05
2023-05-03T02:00:12.966Z,-0.06
2023-05-03T02:00:24.618Z,-0.06
2023-05-03T02:00:35.315Z,-0.08
2023-05-03T02:00:48.099Z,-0.08
2023-05-03T02:00:59.784Z,-0.06
2023-05-03T02:01:12.063Z,-0.08
2023-05-03T02:01:22.888Z,-0.09
2023-05-03T02:01:34.744Z,-0.12
2023-05-03T02:01:45.472Z,-0.12
2023-05-03T02:01:57.175Z,-0.12
2023-05-03T02:02:07.879Z,-0.13
2023-05-03T02:02:18.615Z,-0.13
2023-05-03T02:02:29.454Z,-0.13
2023-05-03T02:02:40.202Z,-0.14
2023-05-03T02:02:51.874Z,-0.14
2023-05-03T02:03:02.613Z,-0.14
2023-05-03T02:03:13.407Z,-0.16
2023-05-03T02:03:24.112Z,-0.14
2023-05-03T02:03:35.811Z,-0.17
2023-05-03T02:03:46.508Z,-0.17
2023-05-03T02:03:59.478Z,-0.19
2023-05-03T02:04:10.268Z,-0.17
2023-05-03T02:04:20.971Z,-0.19
2023-05-03T02:04:32.723Z,-0.16
2023-05-03T02:04:44.532Z,-0.17
2023-05-03T02:04:56.247Z,-0.17
2023-05-03T02:05:08.914Z,-0.19
2023-05-03T02:05:20.683Z,-0.17
2023-05-03T02:05:31.489Z,-0.19
2023-05-03T02:05:43.186Z,-0.17
2023-05-03T02:05:53.868Z,-0.17
2023-05-03T02:06:04.590Z,-0.17
2023-05-03T02:06:15.328Z,-0.17
2023-05-03T02:06:27.117Z,-0.17
2023-05-03T02:06:37.936Z,-0.17
2023-05-03T02:06:51.162Z,-0.17
2023-05-03T02:07:02.959Z,-0.17
2023-05-03T02:07:15.321Z,-0.19
2023-05-03T02:07:27.517Z,-0.19
2023-05-03T02:07:38.211Z,-0.19
2023-05-03T02:07:48.950Z,-0.20
2023-05-03T02:08:00.615Z,-0.20
2023-05-03T02:08:13.854Z,-0.21
2023-05-03T02:08:26.780Z,-0.21
2023-05-03T02:08:38.493Z,-0.21
2023-05-03T02:08:50.917Z,-0.21
2023-05-03T02:09:02.644Z,-0.23
2023-05-03T02:09:14.353Z,-0.23
2023-05-03T02:09:27.553Z,-0.23
2023-05-03T02:09:41.239Z,-0.23
2023-05-03T02:09:51.967Z,-0.24
2023-05-03T02:10:02.839Z,-0.23
2023-05-03T02:10:13.786Z,-0.24
2023-05-03T02:10:26.709Z,-0.24
2023-05-03T02:10:37.444Z,-0.24
2023-05-03T02:10:49.165Z,-0.24
2023-05-03T02:11:01.395Z,-0.24
2023-05-03T02:11:12.152Z,-0.26
2023-05-03T02:11:22.946Z,-0.24
2023-05-03T02:11:33.704Z,-0.24
2023-05-03T02:11:46.132Z,-0.26
2023-05-03T02:11:56.840Z,-0.24
2023-05-03T02:12:07.548Z,-0.24
2023-05-03T02:12:18.253Z,-0.26
2023-05-03T02:12:28.970Z,-0.27
2023-05-03T02:12:39.678Z,-0.24
2023-05-03T02:12:50.407Z,-0.26
2023-05-03T02:13:01.116Z,-0.26
2023-05-03T02:13:13.540Z,-0.27
2023-05-03T02:13:24.223Z,-0.26
2023-05-03T02:13:35.907Z,-0.27
2023-05-03T02:13:48.900Z,-0.26
2023-05-03T02:13:59.594Z,-0.26
2023-05-03T02:14:10.305Z,-0.26
2023-05-03T02:14:21.009Z,-0.24
2023-05-03T02:14:33.956Z,-0.26
2023-05-03T02:14:44.624Z,-0.26
2023-05-03T02:14:55.344Z,-0.26
2023-05-03T02:15:08.534Z,-0.26
2023-05-03T02:15:20.980Z,-0.26
2023-05-03T02:15:31.726Z,-0.26
2023-05-03T02:15:44.437Z,-0.24
2023-05-03T02:15:55.154Z,-0.26
2023-05-03T02:16:06.840Z,-0.26
2023-05-03T02:16:18.648Z,-0.26
2023-05-03T02:16:30.484Z,-0.26
2023-05-03T02:16:43.708Z,-0.27
2023-05-03T02:16:56.188Z,-0.27
2023-05-03T02:17:08.767Z,-0.27
2023-05-03T02:17:20.560Z,-0.27
2023-05-03T02:17:32.284Z,-0.30
2023-05-03T02:17:43.058Z,-0.30
2023-05-03T02:17:55.568Z,-0.30
2023-05-03T02:18:06.329Z,-0.30
2023-05-03T02:18:19.455Z,-0.30
2023-05-03T02:18:30.182Z,-0.31
2023-05-03T02:18:41.921Z,-0.31
2023-05-03T02:18:53.581Z,-0.31
2023-05-03T02:19:05.293Z,-0.32
2023-05-03T02:19:16.021Z,-0.32
2023-05-03T02:19:28.450Z,-0.32
2023-05-03T02:19:40.168Z,-0.34
2023-05-03T02:19:52.531Z,-0.34
2023-05-03T02:20:05.288Z,-0.35
2023-05-03T02:20:18.335Z,-0.34
2023-05-03T02:20:29.031Z,-0.34
2023-05-03T02:20:41.434Z,-0.35
2023-05-03T02:20:52.150Z,-0.35
2023-05-03T02:21:04.330Z,-0.35
2023-05-03T02:21:17.995Z,-0.37
2023-05-03T02:21:31.173Z,-0.34
2023-05-03T02:21:41.882Z,-0.35
2023-05-03T02:21:53.574Z,-0.38
2023-05-03T02:22:06.005Z,-0.37
2023-05-03T02:22:16.679Z,-0.37
2023-05-03T02:22:28.972Z,-0.38
2023-05-03T02:22:39.640Z,-0.37
2023-05-03T02:22:52.810Z,-0.37
2023-05-03T02:23:03.519Z,-0.38
2023-05-03T02:23:15.989Z,-0.38
2023-05-03T02:23:26.748Z,-0.38
2023-05-03T02:23:38.430Z,-0.38
2023-05-03T02:23:49.145Z,-0.39
2023-05-03T02:24:00.840Z,-0.38
2023-05-03T02:24:11.561Z,-0.38
2023-05-03T02:24:22.307Z,-0.38
2023-05-03T02:24:33.017Z,-0.38
2023-05-03T02:24:43.877Z,-0.38
2023-05-03T02:24:56.316Z,-0.39
2023-05-03T02:25:07.009Z,-0.38
2023-05-03T02:25:17.758Z,-0.39
2023-05-03T02:25:28.493Z,-0.39
2023-05-03T02:25:40.219Z,-0.39
2023-05-03T02:25:50.928Z,-0.39
2023-05-03T02:26:03.395Z,-0.39
2023-05-03T02:26:15.085Z,-0.39
2023-05-03T02:26:25.937Z,-0.41
2023-05-03T02:26:37.572Z,-0.41
2023-05-03T02:26:48.272Z,-0.42
2023-05-03T02:26:59.030Z,-0.41
2023-05-03T02:27:09.757Z,-0.41
2023-05-03T02:27:22.931Z,-0.41
2023-05-03T02:27:35.189Z,-0.41
2023-05-03T02:27:47.377Z,-0.42
2023-05-03T02:27:58.134Z,-0.41
2023-05-03T02:28:11.243Z,-0.41
2023-05-03T02:28:22.929Z,-0.42
2023-05-03T02:28:33.661Z,-0.42
2023-05-03T02:28:46.848Z,-0.42
2023-05-03T02:28:59.280Z,-0.41
2023-05-03T02:29:11.646Z,-0.42
2023-05-03T02:29:22.422Z,-0.41
2023-05-03T02:29:33.245Z,-0.41
2023-05-03T02:29:45.658Z,-0.42
2023-05-03T02:29:56.360Z,-0.42
2023-05-03T02:30:08.120Z,-0.42
2023-05-03T02:30:19.816Z,-0.41
2023-05-03T02:30:32.244Z,-0.42
2023-05-03T02:30:44.000Z,-0.42
2023-05-03T02:30:54.766Z,-0.41
2023-05-03T02:31:06.590Z,-0.41
2023-05-03T02:31:17.462Z,-0.42
2023-05-03T02:31:29.406Z,-0.42
2023-05-03T02:31:43.108Z,-0.41
2023-05-03T02:31:55.539Z,-0.42
2023-05-03T02:32:06.217Z,-0.41
2023-05-03T02:32:16.988Z,-0.41
2023-05-03T02:32:27.756Z,-0.42
2023-05-03T02:32:39.454Z,-0.41
2023-05-03T02:32:50.172Z,-0.42
2023-05-03T02:33:01.874Z,-0.42
2023-05-03T02:33:14.817Z,-0.42
2023-05-03T02:33:26.707Z,-0.44
2023-05-03T02:33:38.950Z,-0.44
2023-05-03T02:33:49.666Z,-0.44
2023-05-03T02:34:02.154Z,-0.44
2023-05-03T02:34:15.322Z,-0.45